Time;durP1;ratioP1;P1;durP2;ratioP2;P2;SDS_P1;SDS_P2;PMS_P1;PMS_P2;Temp;Humidity;BMP_temperature;BMP_pressure;BME280_temperature;BME280_humidity;BME280_pressure;Samples;Min_cycle;Max_cycle;Signal;HPM_P1;HPM_P2
2022/11/06 00:01:32;;;;;;;10.52;4.90;;;10.90;99.90;;;;;;5022135;28;20055;-84
2022/11/06 00:03:58;;;;;;;12.13;5.35;;;11.90;99.90;;;;;;5031467;28;20033;-84
2022/11/06 00:09:11;;;;;;;8.00;5.15;;;10.80;99.90;;;;;;5038320;28;20440;-84
2022/11/06 00:11:39;;;;;;;10.05;5.57;;;10.80;99.90;;;;;;5021416;28;20083;-84
2022/11/06 00:14:05;;;;;;;8.45;5.45;;;10.70;99.90;;;;;;5038042;28;20498;-83
2022/11/06 00:16:31;;;;;;;13.43;6.22;;;10.70;99.90;;;;;;5037384;28;20113;-84
2022/11/06 00:19:00;;;;;;;16.17;6.18;;;10.60;99.90;;;;;;5036862;28;20132;-84
2022/11/06 00:21:27;;;;;;;10.45;5.95;;;11.70;99.90;;;;;;5020109;28;20080;-83
2022/11/06 00:23:55;;;;;;;12.20;5.75;;;10.50;99.90;;;;;;5053055;28;20490;-83
2022/11/06 00:26:23;;;;;;;12.93;7.00;;;11.80;99.90;;;;;;5053994;28;20093;-83
2022/11/06 00:28:50;;;;;;;10.75;6.65;;;11.20;99.90;;;;;;5040905;28;20048;-84
2022/11/06 00:31:21;;;;;;;14.40;7.00;;;11.10;99.90;;;;;;5040306;28;20055;-85
2022/11/06 00:33:47;;;;;;;12.73;6.78;;;10.30;99.90;;;;;;5059834;28;20041;-84
2022/11/06 00:36:16;;;;;;;20.23;7.95;;;10.30;99.90;;;;;;5054337;28;20370;-84
2022/11/06 00:38:42;;;;;;;13.68;7.35;;;10.30;99.90;;;;;;5038256;28;20029;-83
2022/11/06 00:41:13;;;;;;;13.23;7.57;;;10.20;99.90;;;;;;5039197;28;20048;-83
2022/11/06 00:43:39;;;;;;;15.43;7.18;;;11.50;99.90;;;;;;5035049;28;20047;-84
2022/11/06 00:46:07;;;;;;;12.60;7.43;;;10.90;99.90;;;;;;5053746;28;20119;-84
2022/11/06 00:48:34;;;;;;;12.38;6.97;;;10.10;99.90;;;;;;5025851;28;20040;-84
2022/11/06 00:51:09;;;;;;;15.68;7.55;;;10.10;99.90;;;;;;5055181;28;20036;-84
2022/11/06 00:53:36;;;;;;;13.93;7.57;;;10.10;99.90;;;;;;5033681;28;20143;-83
2022/11/06 00:56:16;;;;;;;11.27;7.38;;;10.10;99.90;;;;;;5041973;28;20040;-84
2022/11/06 00:58:42;;;;;;;14.77;7.80;;;10.00;99.90;;;;;;5031759;28;20057;-84
2022/11/06 01:01:11;;;;;;;16.08;8.10;;;10.00;99.90;;;;;;5051414;28;20048;-84
2022/11/06 01:03:38;;;;;;;13.30;8.65;;;10.00;99.90;;;;;;5070929;28;20161;-84
2022/11/06 01:06:09;;;;;;;13.57;8.15;;;11.10;99.90;;;;;;5051464;28;20084;-84
2022/11/06 01:08:35;;;;;;;13.88;7.65;;;10.00;99.90;;;;;;5035541;28;20107;-84
2022/11/06 01:11:09;;;;;;;13.77;8.27;;;10.00;99.90;;;;;;5018596;28;20512;-83
2022/11/06 01:13:36;;;;;;;13.93;8.48;;;10.10;99.90;;;;;;5053293;28;20047;-84
2022/11/06 01:16:04;;;;;;;12.48;8.02;;;11.20;99.90;;;;;;5039195;28;20094;-84
2022/11/06 01:18:30;;;;;;;15.30;8.85;;;10.10;99.90;;;;;;5055255;28;20052;-84
2022/11/06 01:20:56;;;;;;;11.55;7.80;;;10.10;99.90;;;;;;5073511;28;20040;-84
2022/11/06 01:23:22;;;;;;;14.23;8.45;;;10.30;99.90;;;;;;5054813;28;20079;-84
2022/11/06 01:26:02;;;;;;;16.52;8.93;;;10.10;99.90;;;;;;5055444;28;20052;-84
2022/11/06 01:28:28;;;;;;;14.73;9.32;;;10.00;99.90;;;;;;5072331;28;20386;-84
2022/11/06 01:30:54;;;;;;;14.80;8.52;;;10.00;99.90;;;;;;5072694;28;20040;-84
2022/11/06 01:33:21;;;;;;;16.33;8.73;;;10.00;99.90;;;;;;5054605;28;20044;-84
2022/11/06 01:35:48;;;;;;;15.98;9.20;;;10.80;99.90;;;;;;5038142;28;20124;-84
2022/11/06 01:38:14;;;;;;;14.95;9.18;;;10.00;99.90;;;;;;5053046;28;20420;-84
2022/11/06 01:40:42;;;;;;;15.82;9.75;;;9.90;99.90;;;;;;5043533;28;20124;-84
2022/11/06 01:43:21;;;;;;;13.73;9.60;;;11.00;99.90;;;;;;5018354;28;20410;-84
2022/11/06 01:45:49;;;;;;;17.65;9.95;;;9.90;99.90;;;;;;5035609;28;20143;-84
2022/11/06 01:48:17;;;;;;;16.88;9.73;;;9.80;99.90;;;;;;5019256;28;20048;-84
2022/11/06 01:50:48;;;;;;;15.00;8.93;;;9.90;99.90;;;;;;5034430;28;20037;-84
2022/11/06 01:53:14;;;;;;;15.25;10.02;;;9.80;99.90;;;;;;5017031;28;20045;-84
2022/11/06 01:55:44;;;;;;;18.33;9.98;;;11.30;99.90;;;;;;5034748;28;20132;-84
2022/11/06 01:58:14;;;;;;;14.27;8.88;;;10.40;99.90;;;;;;5052618;28;20076;-83
2022/11/06 02:00:40;;;;;;;16.80;10.55;;;9.80;99.90;;;;;;5049802;28;20049;-84
2022/11/06 02:03:06;;;;;;;16.40;10.25;;;9.80;99.90;;;;;;5066302;28;20067;-83
2022/11/06 02:05:32;;;;;;;16.60;9.63;;;10.10;99.90;;;;;;5065738;28;20041;-84
2022/11/06 02:07:59;;;;;;;18.15;10.98;;;11.00;99.90;;;;;;5054346;28;20040;-84
2022/11/06 02:10:26;;;;;;;18.92;10.48;;;10.60;99.90;;;;;;5034860;28;20113;-84
2022/11/06 02:13:17;;;;;;;16.33;10.65;;;10.30;99.90;;;;;;5052257;28;20049;-84
2022/11/06 02:15:46;;;;;;;18.98;11.15;;;10.40;99.90;;;;;;5034908;28;20041;-84
2022/11/06 02:18:11;;;;;;;17.25;10.90;;;10.40;99.90;;;;;;5018343;28;20417;-84
2022/11/06 02:20:57;;;;;;;21.23;12.10;;;9.60;99.90;;;;;;5056208;28;20051;-84
2022/11/06 02:23:42;;;;;;;;;;;9.60;99.90;;;;;;5055266;28;20565;-84
2022/11/06 02:26:21;;;;;;;23.02;11.85;;;9.60;99.90;;;;;;5074047;28;19924;-84
2022/11/06 02:28:54;;;;;;;18.58;11.30;;;9.60;99.90;;;;;;5056030;28;20358;-84
2022/11/06 02:31:25;;;;;;;20.85;12.25;;;9.60;99.90;;;;;;5037737;28;20041;-84
2022/11/06 02:34:00;;;;;;;16.40;10.90;;;9.60;99.90;;;;;;5054307;28;20131;-84
2022/11/06 02:36:31;;;;;;;19.30;12.50;;;9.60;99.90;;;;;;5073556;28;20044;-84
2022/11/06 02:39:00;;;;;;;17.73;12.82;;;9.50;99.90;;;;;;5037500;28;20052;-84
2022/11/06 02:41:34;;;;;;;19.88;12.10;;;9.50;99.90;;;;;;5037269;28;20045;-83
2022/11/06 02:44:04;;;;;;;20.92;11.50;;;9.60;99.90;;;;;;5052877;28;20166;-84
2022/11/06 02:46:34;;;;;;;18.55;11.95;;;9.60;99.90;;;;;;5034467;28;20045;-84
2022/11/06 02:49:37;;;;;;;17.88;11.20;;;9.60;99.90;;;;;;5054251;28;20083;-84
2022/11/06 02:52:09;;;;;;;18.05;11.73;;;9.60;99.90;;;;;;5051510;28;20056;-84
2022/11/06 02:54:38;;;;;;;18.50;11.38;;;9.50;99.90;;;;;;5034301;28;20451;-84
2022/11/06 02:57:07;;;;;;;16.58;11.43;;;9.60;99.90;;;;;;5057396;28;20377;-84
2022/11/06 02:59:43;;;;;;;16.58;10.48;;;9.60;99.90;;;;;;5062143;28;20064;-84
2022/11/06 03:02:15;;;;;;;19.80;10.82;;;10.10;99.90;;;;;;5012145;28;20033;-83
2022/11/06 03:04:49;;;;;;;17.52;11.50;;;9.60;99.90;;;;;;5037042;28;20048;-84
2022/11/06 03:07:19;;;;;;;15.77;10.85;;;10.10;99.90;;;;;;5008033;28;20395;-84
2022/11/06 03:09:47;;;;;;;15.43;9.95;;;10.10;99.90;;;;;;5038591;28;20053;-84
2022/11/06 03:12:30;;;;;;;14.45;9.77;;;10.30;99.90;;;;;;5036223;28;20412;-84
2022/11/06 03:15:33;;;;;;;15.88;10.88;;;9.70;99.90;;;;;;5018199;28;20041;-84
2022/11/06 03:18:09;;;;;;;15.02;11.40;;;9.70;99.90;;;;;;5035804;28;20414;-83
2022/11/06 03:20:42;;;;;;;14.68;10.75;;;9.70;99.90;;;;;;5035287;28;20037;-83
2022/11/06 03:23:15;;;;;;;15.90;11.30;;;9.70;99.90;;;;;;5017690;28;20052;-84
2022/11/06 03:25:49;;;;;;;17.35;10.85;;;9.70;99.90;;;;;;5035304;28;20087;-84
2022/11/06 03:28:30;;;;;;;12.75;8.57;;;10.40;99.90;;;;;;5017369;28;20120;-84
2022/11/06 03:31:00;;;;;;;15.23;9.98;;;9.70;99.90;;;;;;5028018;28;20056;-84
2022/11/06 03:33:38;;;;;;;14.43;10.00;;;9.80;99.90;;;;;;5001239;28;20045;-84
2022/11/06 03:36:17;;;;;;;15.60;10.73;;;9.80;99.90;;;;;;5025054;28;20116;-84
2022/11/06 03:38:47;;;;;;;15.02;9.93;;;9.80;99.90;;;;;;5036974;28;20041;-83
2022/11/06 03:41:21;;;;;;;15.32;10.45;;;10.00;99.90;;;;;;5038944;28;20442;-84
2022/11/06 03:43:51;;;;;;;14.10;9.10;;;9.80;99.90;;;;;;5033754;28;20037;-83
2022/11/06 03:46:23;;;;;;;15.68;9.70;;;10.20;99.90;;;;;;5001013;28;20398;-84
2022/11/06 03:48:54;;;;;;;13.00;9.13;;;9.80;99.90;;;;;;5013525;28;20124;-83
2022/11/06 03:51:28;;;;;;;15.25;10.23;;;10.10;99.90;;;;;;5036952;28;20186;-84
2022/11/06 03:54:06;;;;;;;12.55;9.50;;;9.80;99.90;;;;;;5036955;28;20041;-83
2022/11/06 03:57:07;;;;;;;14.32;10.55;;;9.90;99.90;;;;;;5036465;28;20120;-84
2022/11/06 03:59:38;;;;;;;15.15;9.48;;;9.80;99.90;;;;;;4976900;28;20049;-83
2022/11/06 04:02:04;;;;;;;18.27;9.45;;;10.80;99.90;;;;;;5029612;28;20414;-83
2022/11/06 04:05:01;;;;;;;13.48;10.07;;;10.30;99.90;;;;;;5034692;28;20053;-82
2022/11/06 04:07:36;;;;;;;13.45;9.27;;;9.80;99.90;;;;;;5027035;28;20469;-84
2022/11/06 04:15:50;;;;;;;15.20;9.13;;;9.80;99.90;;;;;;5018943;28;20088;-84
2022/11/06 04:18:19;;;;;;;13.50;9.38;;;9.80;99.90;;;;;;5017681;28;20037;-83
2022/11/06 04:26:57;;;;;;;17.70;9.55;;;9.90;99.90;;;;;;5016189;28;20042;-84
2022/11/06 04:29:37;;;;;;;12.80;8.55;;;10.90;99.90;;;;;;5035300;28;20082;-83
2022/11/06 04:32:34;;;;;;;14.45;9.05;;;9.90;99.90;;;;;;5019284;28;20048;-83
2022/11/06 04:35:09;;;;;;;;;;;9.90;99.90;;;;;;5023939;28;20506;-83
2022/11/06 04:37:52;;;;;;;14.23;9.27;;;9.90;99.90;;;;;;5032760;28;19947;-84
2022/11/06 04:40:27;;;;;;;14.80;8.90;;;11.20;99.90;;;;;;5035938;28;20081;-84
2022/11/06 04:43:20;;;;;;;16.90;9.18;;;9.90;99.90;;;;;;5002006;28;20045;-84
2022/11/06 04:45:50;;;;;;;11.52;7.88;;;10.30;99.90;;;;;;5034117;28;20058;-84
2022/11/06 04:48:17;;;;;;;14.07;9.10;;;11.10;99.90;;;;;;5016814;28;20400;-84
2022/11/06 04:50:48;;;;;;;15.27;8.52;;;11.20;99.90;;;;;;5028736;28;20045;-84
2022/11/06 04:53:16;;;;;;;15.70;9.15;;;9.90;99.90;;;;;;5016063;28;20383;-84
2022/11/06 04:55:51;;;;;;;14.52;8.77;;;10.80;99.90;;;;;;5033952;28;20049;-84
2022/11/06 04:58:16;;;;;;;12.48;9.00;;;11.20;99.90;;;;;;5025489;28;20095;-82
2022/11/06 05:00:46;;;;;;;12.48;8.30;;;9.90;99.90;;;;;;5026772;28;20489;-84
2022/11/06 05:03:12;;;;;;;12.43;8.73;;;11.30;99.90;;;;;;5053018;28;20065;-84
2022/11/06 05:05:38;;;;;;;16.80;8.98;;;9.90;99.90;;;;;;5029117;28;20395;-83
2022/11/06 05:08:04;;;;;;;15.48;8.30;;;9.90;99.90;;;;;;5034364;28;20116;-84
2022/11/06 05:10:30;;;;;;;13.65;8.48;;;9.90;99.90;;;;;;5033536;28;20088;-83
2022/11/06 05:12:55;;;;;;;12.90;8.10;;;9.90;99.90;;;;;;5016567;28;20068;-83
2022/11/06 05:15:21;;;;;;;16.23;7.38;;;9.90;99.90;;;;;;5048730;28;20167;-83
2022/11/06 05:17:46;;;;;;;13.85;7.90;;;9.90;99.90;;;;;;5051249;28;20131;-84
2022/11/06 05:20:12;;;;;;;14.15;8.10;;;9.90;99.90;;;;;;5034634;28;20084;-83
2022/11/06 05:22:59;;;;;;;13.63;8.13;;;9.90;99.90;;;;;;5035587;28;20041;-84
2022/11/06 05:25:31;;;;;;;14.77;8.07;;;9.90;99.90;;;;;;5054233;28;20051;-83
2022/11/06 05:27:57;;;;;;;14.25;8.20;;;11.10;99.90;;;;;;5024590;28;20037;-84
2022/11/06 05:30:23;;;;;;;17.42;7.97;;;10.20;99.90;;;;;;5026479;28;20060;-84
2022/11/06 05:32:49;;;;;;;14.77;8.00;;;9.90;99.90;;;;;;5020929;28;20160;-83
2022/11/06 05:35:16;;;;;;;11.77;6.95;;;9.90;99.90;;;;;;5021112;28;20168;-83
2022/11/06 05:37:41;;;;;;;15.65;8.70;;;9.90;99.90;;;;;;5033700;28;20397;-83
2022/11/06 05:40:07;;;;;;;13.85;7.60;;;9.90;99.90;;;;;;5028087;28;20052;-83
2022/11/06 05:42:36;;;;;;;15.02;7.70;;;9.90;99.90;;;;;;5014814;28;20470;-83
2022/11/06 05:45:01;;;;;;;12.57;7.10;;;9.90;99.90;;;;;;5032713;28;20144;-83
2022/11/06 05:47:27;;;;;;;12.15;7.00;;;9.90;99.90;;;;;;5033021;28;20038;-84
2022/11/06 05:49:52;;;;;;;12.35;6.82;;;9.90;99.90;;;;;;5032979;28;20042;-84
2022/11/06 05:52:18;;;;;;;12.13;6.90;;;9.90;99.90;;;;;;5032806;28;20486;-84
2022/11/06 05:54:44;;;;;;;17.20;7.60;;;10.00;99.90;;;;;;5032811;28;20037;-84
2022/11/06 05:57:12;;;;;;;11.60;7.45;;;9.90;99.90;;;;;;5032361;28;20038;-84
2022/11/06 05:59:38;;;;;;;12.70;7.03;;;10.00;99.90;;;;;;5047706;28;20064;-83
2022/11/06 06:02:03;;;;;;;13.10;7.25;;;10.80;99.90;;;;;;5050304;28;20106;-83
2022/11/06 06:04:29;;;;;;;13.68;6.65;;;9.90;99.90;;;;;;5035004;28;20425;-83
2022/11/06 06:06:54;;;;;;;12.90;7.00;;;11.30;99.90;;;;;;5035507;28;20048;-83
2022/11/06 06:09:20;;;;;;;12.68;7.03;;;9.90;99.90;;;;;;5004180;28;20135;-83
2022/11/06 06:11:51;;;;;;;14.93;6.72;;;11.30;99.90;;;;;;5019519;28;20041;-84
2022/11/06 06:14:17;;;;;;;10.40;6.90;;;9.90;99.90;;;;;;4998500;28;20103;-83
2022/11/06 06:16:43;;;;;;;11.68;6.22;;;10.80;99.90;;;;;;5033284;28;20461;-83
2022/11/06 06:19:08;;;;;;;9.48;6.75;;;9.90;99.90;;;;;;5005197;28;20025;-84
2022/11/06 06:21:35;;;;;;;14.68;6.63;;;9.90;99.90;;;;;;4998975;28;20050;-83
2022/11/06 06:24:01;;;;;;;14.38;6.22;;;10.00;99.90;;;;;;5016218;28;20376;-83
2022/11/06 06:26:27;;;;;;;10.60;6.07;;;11.10;99.90;;;;;;5014824;28;20053;-83
2022/11/06 06:28:52;;;;;;;13.18;6.32;;;9.90;99.90;;;;;;5014877;28;20042;-83
2022/11/06 06:31:18;;;;;;;9.55;5.47;;;9.90;99.90;;;;;;5035196;28;20105;-84
2022/11/06 06:33:43;;;;;;;13.32;6.93;;;9.90;99.90;;;;;;5022858;28;20060;-83
2022/11/06 06:36:09;;;;;;;12.35;6.20;;;10.40;99.90;;;;;;5021987;28;20047;-83
2022/11/06 06:38:35;;;;;;;13.75;6.90;;;10.10;99.90;;;;;;5040115;28;20041;-84
2022/11/06 06:41:05;;;;;;;13.35;6.35;;;9.80;99.90;;;;;;5054051;28;20049;-83
2022/11/06 06:43:31;;;;;;;17.63;5.93;;;9.80;99.90;;;;;;5054060;28;20037;-83
2022/11/06 06:46:02;;;;;;;16.55;6.13;;;9.90;99.90;;;;;;5055794;28;20052;-83
2022/11/06 06:48:28;;;;;;;12.00;5.65;;;9.80;99.90;;;;;;5035560;28;20052;-84
2022/11/06 06:51:02;;;;;;;11.43;5.63;;;9.80;99.90;;;;;;5056783;28;20041;-83
2022/11/06 06:53:28;;;;;;;11.60;6.00;;;9.80;99.90;;;;;;5020879;28;20060;-83
2022/11/06 06:55:54;;;;;;;12.52;6.00;;;9.80;99.90;;;;;;5021571;28;20074;-83
2022/11/06 06:58:19;;;;;;;14.27;5.20;;;10.70;99.90;;;;;;5038097;28;20046;-83
2022/11/06 07:00:45;;;;;;;14.13;5.90;;;10.80;99.90;;;;;;5039100;28;20044;-84
2022/11/06 07:03:11;;;;;;;11.98;5.95;;;9.90;99.90;;;;;;5025062;28;20041;-84
2022/11/06 07:05:37;;;;;;;10.60;5.47;;;9.80;99.90;;;;;;5035863;28;20049;-82
2022/11/06 07:08:03;;;;;;;15.10;5.88;;;9.80;99.90;;;;;;5029969;28;20095;-84
2022/11/06 07:10:30;;;;;;;10.50;5.13;;;9.90;99.90;;;;;;5032476;28;20052;-84
2022/11/06 07:13:00;;;;;;;10.15;5.45;;;9.90;99.90;;;;;;5053689;28;20041;-83
2022/11/06 07:15:25;;;;;;;14.63;5.40;;;10.60;99.90;;;;;;5017618;28;20050;-83
2022/11/06 07:17:51;;;;;;;15.13;5.65;;;9.90;99.90;;;;;;5018955;28;20072;-83
2022/11/06 07:20:20;;;;;;;12.50;5.10;;;9.90;99.90;;;;;;5036437;28;20045;-83
2022/11/06 07:22:45;;;;;;;12.25;5.13;;;10.10;99.90;;;;;;5017247;28;20144;-83
2022/11/06 07:25:11;;;;;;;9.52;5.07;;;10.60;99.90;;;;;;5018809;28;20050;-83
2022/11/06 07:27:37;;;;;;;13.02;5.00;;;10.00;99.90;;;;;;5054756;28;20041;-83
2022/11/06 07:30:03;;;;;;;11.65;4.78;;;10.80;99.90;;;;;;5020561;28;20049;-84
2022/11/06 07:32:29;;;;;;;12.20;5.00;;;9.90;99.90;;;;;;5020670;28;20390;-83
2022/11/06 07:34:54;;;;;;;8.82;4.53;;;10.10;99.90;;;;;;5053616;28;20045;-83
2022/11/06 07:37:20;;;;;;;11.63;4.93;;;10.10;99.90;;;;;;5035298;28;20041;-83
2022/11/06 07:39:46;;;;;;;13.50;4.68;;;11.00;99.90;;;;;;5033600;28;20053;-83
2022/11/06 07:42:12;;;;;;;12.27;4.47;;;11.50;99.90;;;;;;5015900;28;20056;-83
2022/11/06 07:44:37;;;;;;;11.65;4.80;;;11.00;99.90;;;;;;5036245;28;20124;-84
2022/11/06 07:47:03;;;;;;;12.15;4.47;;;11.60;99.90;;;;;;5037562;28;20033;-85
2022/11/06 07:49:29;;;;;;;10.88;4.22;;;10.30;99.90;;;;;;5001751;28;20049;-84
2022/11/06 07:51:54;;;;;;;9.88;4.65;;;10.30;99.90;;;;;;5042417;28;20033;-84
2022/11/06 07:54:20;;;;;;;12.48;4.85;;;10.20;99.90;;;;;;5021982;28;20092;-84
2022/11/06 07:56:46;;;;;;;11.68;4.40;;;10.20;99.90;;;;;;5018527;28;20037;-84
2022/11/06 07:59:11;;;;;;;12.27;4.65;;;10.10;99.90;;;;;;5054251;28;20045;-84
2022/11/06 08:01:37;;;;;;;9.65;4.28;;;10.00;99.90;;;;;;5035537;28;20057;-84
2022/11/06 08:04:03;;;;;;;10.68;4.88;;;10.00;99.90;;;;;;5038233;28;20037;-84
2022/11/06 08:06:29;;;;;;;9.23;4.30;;;10.30;99.90;;;;;;5037996;28;20049;-84
2022/11/06 08:08:54;;;;;;;13.35;4.47;;;11.50;99.90;;;;;;5019715;28;20033;-84
2022/11/06 08:11:20;;;;;;;9.32;4.47;;;10.00;99.90;;;;;;5016750;28;20092;-84
2022/11/06 08:13:46;;;;;;;14.50;4.70;;;10.00;99.90;;;;;;5016893;28;20486;-85
2022/11/06 08:16:13;;;;;;;13.50;5.18;;;10.10;99.90;;;;;;5001096;28;20045;-84
2022/11/06 08:18:40;;;;;;;11.77;4.10;;;10.10;99.90;;;;;;5041154;28;20059;-84
2022/11/06 08:21:06;;;;;;;11.30;4.50;;;11.50;99.90;;;;;;5054849;28;20040;-85
2022/11/06 08:23:35;;;;;;;12.13;4.72;;;11.60;99.90;;;;;;5020150;28;20048;-84
2022/11/06 08:26:03;;;;;;;8.27;4.35;;;11.60;99.90;;;;;;5023316;28;20123;-85
2022/11/06 08:28:29;;;;;;;11.13;4.82;;;10.10;99.90;;;;;;5036281;28;20037;-85
2022/11/06 08:30:55;;;;;;;13.52;4.80;;;10.80;99.90;;;;;;5019429;28;20129;-84
2022/11/06 08:33:23;;;;;;;10.80;4.63;;;10.00;99.90;;;;;;5035781;28;20376;-84
2022/11/06 08:35:49;;;;;;;11.77;4.90;;;11.10;99.90;;;;;;5018915;28;20049;-84
2022/11/06 08:38:15;;;;;;;11.82;4.80;;;10.10;99.90;;;;;;5034494;28;20051;-84
2022/11/06 08:40:41;;;;;;;10.23;4.10;;;10.20;99.90;;;;;;5035806;28;20040;-84
2022/11/06 08:43:09;;;;;;;8.68;4.00;;;11.50;99.90;;;;;;5019334;28;20504;-84
2022/11/06 08:45:40;;;;;;;14.85;4.45;;;10.20;99.90;;;;;;5036303;28;20048;-85
2022/11/06 08:48:07;;;;;;;12.80;4.05;;;11.60;99.90;;;;;;5036535;28;20044;-84
2022/11/06 08:50:35;;;;;;;11.30;4.03;;;11.70;99.90;;;;;;5018997;28;20044;-85
2022/11/06 08:53:03;;;;;;;13.55;4.20;;;11.60;99.90;;;;;;5009737;28;20394;-85
2022/11/06 08:55:33;;;;;;;11.02;4.25;;;10.40;99.90;;;;;;4999556;28;20494;-84
2022/11/06 08:57:59;;;;;;;9.95;3.80;;;10.50;99.90;;;;;;5015858;28;20041;-84
2022/11/06 09:00:25;;;;;;;10.30;4.00;;;10.70;99.90;;;;;;5016418;28;20528;-84
2022/11/06 09:02:57;;;;;;;10.68;4.00;;;10.60;99.90;;;;;;5035063;28;20044;-84
2022/11/06 09:05:23;;;;;;;9.93;3.83;;;10.60;99.90;;;;;;5019333;28;20375;-84
2022/11/06 09:07:48;;;;;;;11.68;4.35;;;11.30;99.90;;;;;;5026123;28;20032;-84
2022/11/06 09:10:14;;;;;;;10.23;3.53;;;10.70;99.90;;;;;;5074738;28;20040;-84
2022/11/06 09:12:40;;;;;;;10.75;3.72;;;10.70;99.90;;;;;;5040001;28;20041;-83
2022/11/06 09:15:06;;;;;;;12.25;3.63;;;10.70;99.90;;;;;;5038750;28;20094;-84
2022/11/06 09:17:32;;;;;;;8.93;3.50;;;9.70;99.90;;;;;;5032189;28;20043;-84
2022/11/06 09:19:57;;;;;;;9.10;3.70;;;10.90;99.90;;;;;;5040805;28;20048;-83
2022/11/06 09:22:23;;;;;;;9.77;3.78;;;12.10;99.90;;;;;;5042132;28;20155;-83
2022/11/06 09:24:49;;;;;;;9.52;3.47;;;11.10;99.90;;;;;;5038816;28;20048;-83
2022/11/06 09:27:14;;;;;;;10.18;3.15;;;11.20;99.90;;;;;;5072892;28;20112;-83
2022/11/06 09:29:42;;;;;;;9.00;3.60;;;11.20;99.90;;;;;;5038410;28;20127;-83
2022/11/06 09:32:10;;;;;;;7.07;3.15;;;11.20;99.90;;;;;;5072516;28;20504;-83
2022/11/06 09:34:35;;;;;;;9.27;3.42;;;11.30;99.90;;;;;;5056235;28;20041;-83
2022/11/06 09:37:02;;;;;;;12.20;3.47;;;11.30;99.90;;;;;;5071835;28;20127;-83
2022/11/06 09:39:27;;;;;;;10.80;3.13;;;11.20;99.90;;;;;;5034799;28;20102;-83
2022/11/06 09:42:00;;;;;;;10.05;3.78;;;11.90;99.90;;;;;;5050965;28;20045;-83
2022/11/06 09:44:55;;;;;;;8.77;3.35;;;11.20;99.90;;;;;;5051424;28;20366;-83
2022/11/06 09:47:27;;;;;;;8.95;3.20;;;11.20;99.90;;;;;;5050932;28;20053;-83
2022/11/06 09:49:57;;;;;;;8.70;3.10;;;11.60;99.90;;;;;;5052772;28;20120;-83
2022/11/06 09:52:37;;;;;;;8.10;2.90;;;11.20;99.90;;;;;;5052669;28;20044;-84
2022/11/06 09:55:26;;;;;;;11.40;3.50;;;11.30;99.90;;;;;;5067841;28;20044;-83
2022/11/06 09:57:59;;;;;;;10.02;3.30;;;11.40;99.90;;;;;;5034267;28;20318;-83
2022/11/06 10:00:25;;;;;;;7.60;3.20;;;11.50;99.90;;;;;;5034633;28;20126;-83
2022/11/06 10:02:55;;;;;;;8.25;3.20;;;11.40;99.90;;;;;;5016223;28;20393;-83
2022/11/06 10:05:47;;;;;;;9.27;3.15;;;11.40;99.90;;;;;;5015022;28;20041;-83
2022/11/06 10:08:26;;;;;;;7.53;3.17;;;11.40;99.90;;;;;;5010735;28;20144;-83
2022/11/06 10:11:29;;;;;;;7.63;2.90;;;11.40;99.90;;;;;;5014855;28;20383;-83
2022/11/06 10:14:01;;;;;;;10.65;3.40;;;11.40;99.90;;;;;;5032462;28;20533;-83
2022/11/06 10:16:33;;;;;;;11.15;3.15;;;11.40;99.90;;;;;;4998908;28;20053;-84
2022/11/06 10:19:37;;;;;;;10.45;3.28;;;11.40;99.90;;;;;;5016299;28;20064;-83
2022/11/06 10:22:11;;;;;;;8.80;3.20;;;11.40;99.90;;;;;;4999001;28;20095;-83
2022/11/06 10:25:07;;;;;;;9.23;3.00;;;11.40;99.90;;;;;;5015162;28;20057;-83
2022/11/06 10:27:41;;;;;;;10.40;3.40;;;11.50;99.90;;;;;;4998525;28;20395;-84
2022/11/06 10:30:07;;;;;;;9.02;3.30;;;11.50;99.90;;;;;;5032360;28;20406;-84
2022/11/06 10:32:51;;;;;;;12.10;3.45;;;11.50;99.90;;;;;;5031973;28;20046;-83
2022/11/06 10:35:36;;;;;;;9.00;2.88;;;11.50;99.90;;;;;;5014522;28;20120;-83
2022/11/06 10:38:27;;;;;;;7.78;2.97;;;11.60;99.90;;;;;;5032156;28;20072;-83
2022/11/06 10:40:54;;;;;;;12.98;2.80;;;12.60;99.90;;;;;;5004668;28;20053;-84
2022/11/06 10:43:34;;;;;;;9.35;2.80;;;11.60;99.90;;;;;;5033337;28;20100;-84
2022/11/06 10:46:24;;;;;;;8.65;2.75;;;11.70;99.90;;;;;;5033157;28;20100;-83
2022/11/06 10:48:56;;;;;;;9.57;3.00;;;11.80;99.90;;;;;;5014937;28;20038;-84
2022/11/06 10:51:41;;;;;;;7.43;2.72;;;12.70;99.90;;;;;;4998408;28;20076;-83
2022/11/06 10:54:40;;;;;;;7.87;2.90;;;12.00;99.90;;;;;;5016012;28;20049;-84
2022/11/06 10:57:14;;;;;;;8.15;2.90;;;11.80;99.90;;;;;;4998882;28;20053;-83
2022/11/06 10:59:40;;;;;;;10.50;2.90;;;11.80;99.90;;;;;;5009360;28;20402;-84
2022/11/06 11:02:28;;;;;;;10.90;3.03;;;11.90;99.90;;;;;;5033764;28;20481;-83
2022/11/06 11:04:53;;;;;;;7.22;2.60;;;11.90;99.90;;;;;;5033940;28;20041;-83
2022/11/06 11:07:20;;;;;;;7.35;2.75;;;12.00;99.90;;;;;;5033420;28;20079;-83
2022/11/06 11:09:48;;;;;;;7.93;2.67;;;12.20;99.90;;;;;;5051828;28;20045;-84
2022/11/06 11:12:27;;;;;;;7.32;2.88;;;12.00;99.90;;;;;;5034408;28;20371;-84
2022/11/06 11:15:16;;;;;;;7.05;2.58;;;12.30;99.90;;;;;;5035011;28;20055;-84
2022/11/06 11:17:42;;;;;;;8.50;3.28;;;12.00;99.90;;;;;;5055095;28;20052;-84
2022/11/06 11:20:30;;;;;;;9.02;2.88;;;12.00;99.90;;;;;;5037899;28;20041;-84
2022/11/06 11:23:16;;;;;;;7.90;3.10;;;12.10;99.90;;;;;;5037455;28;20048;-84
2022/11/06 11:25:45;;;;;;;6.15;2.80;;;12.00;99.90;;;;;;5055377;28;20405;-84
2022/11/06 11:28:31;;;;;;;8.70;2.92;;;12.80;99.90;;;;;;5038035;28;20045;-84
2022/11/06 11:31:17;;;;;;;9.65;3.35;;;11.80;99.90;;;;;;5055656;28;20041;-84
2022/11/06 11:33:53;;;;;;;6.50;3.00;;;11.90;99.90;;;;;;5055932;28;20087;-84
2022/11/06 11:36:18;;;;;;;12.27;3.50;;;11.60;99.90;;;;;;5020458;28;20073;-84
2022/11/06 11:38:44;;;;;;;6.22;3.20;;;12.70;99.90;;;;;;5054932;28;20096;-84
2022/11/06 11:41:22;;;;;;;9.27;3.45;;;11.50;99.90;;;;;;5054769;28;20532;-84
2022/11/06 11:44:10;;;;;;;7.65;3.55;;;11.40;99.90;;;;;;5036857;28;20414;-83
2022/11/06 11:46:47;;;;;;;14.15;3.65;;;11.30;99.90;;;;;;5036797;28;20040;-84
2022/11/06 11:49:32;;;;;;;10.15;3.25;;;11.30;99.90;;;;;;5037013;28;20041;-84
2022/11/06 11:52:01;;;;;;;9.57;3.53;;;11.30;99.90;;;;;;5036992;28;20406;-84
2022/11/06 11:54:33;;;;;;;9.98;3.33;;;11.30;99.90;;;;;;5054590;28;20053;-84
2022/11/06 11:57:03;;;;;;;9.57;3.30;;;11.30;99.90;;;;;;5036812;28;20064;-84
2022/11/06 11:59:45;;;;;;;10.68;3.45;;;11.30;99.90;;;;;;5044049;28;20084;-84
2022/11/06 12:02:28;;;;;;;15.60;3.40;;;11.90;99.90;;;;;;5016685;28;20057;-84
2022/11/06 12:05:12;;;;;;;7.30;2.90;;;11.40;99.90;;;;;;5016330;28;20045;-84
2022/11/06 12:07:42;;;;;;;9.55;3.00;;;11.40;99.90;;;;;;5017990;28;20038;-84
2022/11/06 12:10:37;;;;;;;9.77;2.55;;;11.50;99.90;;;;;;5018348;28;20390;-84
2022/11/06 12:13:23;;;;;;;9.57;3.20;;;11.50;99.90;;;;;;5035183;28;20443;-83
2022/11/06 12:15:57;;;;;;;;;;;11.50;99.90;;;;;;5034610;28;20041;-83
2022/11/06 12:18:34;;;;;;;10.02;3.35;;;11.60;99.90;;;;;;5015363;28;19925;-84
2022/11/06 12:21:22;;;;;;;8.65;2.90;;;11.70;99.90;;;;;;5033768;28;20071;-84
2022/11/06 12:23:58;;;;;;;8.20;3.28;;;11.70;99.90;;;;;;5035184;28;20128;-84
2022/11/06 12:26:45;;;;;;;8.70;2.83;;;12.70;99.90;;;;;;5016919;28;20053;-84
2022/11/06 12:29:42;;;;;;;7.25;2.95;;;11.90;99.90;;;;;;5035230;28;20046;-84
2022/11/06 12:32:35;;;;;;;8.15;2.85;;;11.90;99.90;;;;;;5017517;28;20459;-84
2022/11/06 12:35:31;;;;;;;8.25;2.78;;;12.10;99.90;;;;;;4999733;28;20045;-84
2022/11/06 12:38:03;;;;;;;8.65;2.90;;;12.20;99.90;;;;;;5016293;28;20049;-84
2022/11/06 12:40:36;;;;;;;8.48;2.88;;;12.40;99.90;;;;;;5034962;28;20045;-84
2022/11/06 12:43:14;;;;;;;9.93;3.08;;;12.60;99.90;;;;;;5017376;28;20042;-84
2022/11/06 12:46:06;;;;;;;8.90;2.80;;;12.60;99.90;;;;;;5017695;28;20072;-84
2022/11/06 12:49:29;;;;;;;6.07;2.60;;;12.70;99.90;;;;;;5035103;28;20049;-84
2022/11/06 12:52:15;;;;;;;5.55;2.55;;;12.70;99.90;;;;;;4935133;29;20047;-84
2022/11/06 12:54:44;;;;;;;8.48;3.00;;;12.70;99.90;;;;;;4925434;29;20054;-85
2022/11/06 12:57:30;;;;;;;6.35;2.50;;;12.60;99.90;;;;;;5003004;28;20132;-84
2022/11/06 13:00:20;;;;;;;6.88;2.60;;;12.70;99.90;;;;;;5041786;28;20061;-84
2022/11/06 13:03:17;;;;;;;7.97;2.60;;;12.60;99.90;;;;;;5055626;28;20123;-85
2022/11/06 13:05:42;;;;;;;7.90;2.50;;;12.60;99.90;;;;;;5056864;28;20041;-84
2022/11/06 13:08:19;;;;;;;7.40;2.28;;;12.60;99.90;;;;;;5055218;28;20045;-83
2022/11/06 13:11:09;;;;;;;7.78;2.47;;;13.10;99.90;;;;;;5019842;28;20100;-82
2022/11/06 13:13:44;;;;;;;8.90;2.33;;;12.60;99.90;;;;;;5036332;28;20502;-81
2022/11/06 13:16:13;;;;;;;8.10;2.20;;;12.60;99.90;;;;;;5052844;28;20044;-81
2022/11/06 13:18:45;;;;;;;7.25;2.28;;;12.60;99.90;;;;;;5035613;28;20355;-83
2022/11/06 13:21:20;;;;;;;6.40;2.03;;;12.60;99.90;;;;;;5035232;28;20049;-83
2022/11/06 13:23:58;;;;;;;7.80;2.50;;;13.40;99.90;;;;;;5018875;28;20114;-82